Time;durP1;ratioP1;P1;durP2;ratioP2;P2;SDS_P1;SDS_P2;PMS_P1;PMS_P2;Temp;Humidity;BMP_temperature;BMP_pressure;BME280_temperature;BME280_humidity;BME280_pressure;Samples;Min_cycle;Max_cycle;Signal;HPM_P1;HPM_P2
2022/11/03 00:01:39;;;;;;;3.63;2.30;;;;;;;0.51;67.19;99452.22;5042720;28;20050;-69
2022/11/03 00:04:06;;;;;;;3.63;2.20;;;;;;;0.49;67.38;99449.66;5058795;28;20048;-66
2022/11/03 00:06:30;;;;;;;2.78;2.10;;;;;;;0.47;67.41;99468.97;5075970;28;20131;-64
2022/11/03 00:08:59;;;;;;;2.10;2.00;;;;;;;0.49;67.46;99454.03;5075703;28;20123;-66
2022/11/03 00:11:24;;;;;;;2.40;2.20;;;;;;;0.48;67.59;99454.94;5059308;28;20050;-70
2022/11/03 00:13:48;;;;;;;4.47;2.70;;;;;;;0.46;68.05;99452.38;5076222;28;20039;-72
2022/11/03 00:16:13;;;;;;;6.15;2.33;;;;;;;0.50;67.88;99455.75;5076546;28;20043;-70
2022/11/03 00:18:39;;;;;;;4.15;3.03;;;;;;;0.51;68.12;99463.56;5102930;27;20062;-70
2022/11/03 00:21:06;;;;;;;4.65;2.65;;;;;;;0.55;67.42;99459.09;5118957;27;20050;-70
2022/11/03 00:23:34;;;;;;;5.53;2.47;;;;;;;0.54;67.79;99462.63;5085457;27;20125;-70
2022/11/03 00:26:08;;;;;;;3.67;2.53;;;;;;;0.59;67.13;99452.81;5085984;27;20042;-71
2022/11/03 00:28:33;;;;;;;2.73;2.13;;;;;;;0.52;67.42;99459.19;5101968;27;20046;-75
2022/11/03 00:31:01;;;;;;;2.40;2.20;;;;;;;0.49;67.77;99448.78;5120501;27;20408;-74
2022/11/03 00:33:29;;;;;;;5.13;3.25;;;;;;;0.50;67.71;99456.63;5086273;27;20182;-74
2022/11/03 00:35:59;;;;;;;4.13;2.78;;;;;;;0.54;67.78;99457.38;5102738;27;20043;-71
2022/11/03 00:38:24;;;;;;;4.60;2.58;;;;;;;0.50;67.88;99459.25;5121277;27;20047;-76
2022/11/03 00:40:57;;;;;;;5.75;3.13;;;;;;;0.54;67.73;99466.09;5119952;27;20046;-76
2022/11/03 00:43:22;;;;;;;4.82;2.83;;;;;;;0.50;67.91;99468.88;5101307;27;20034;-75
2022/11/03 00:45:47;;;;;;;2.67;2.47;;;;;;;0.49;68.00;99465.38;5119925;27;20487;-74
2022/11/03 00:48:31;;;;;;;2.88;2.53;;;;;;;0.50;67.92;99464.47;5111120;27;20090;-75
2022/11/03 00:51:06;;;;;;;3.35;2.90;;;;;;;0.57;67.56;99467.75;5102105;27;20041;-75
2022/11/03 00:53:33;;;;;;;3.00;2.80;;;;;;;0.51;68.02;99462.72;5120276;27;20043;-75
2022/11/03 00:55:58;;;;;;;2.92;2.63;;;;;;;0.49;67.93;99470.63;5079831;27;20042;-76
2022/11/03 00:58:23;;;;;;;4.22;3.08;;;;;;;0.48;67.86;99462.81;5098843;27;20034;-76
2022/11/03 01:00:48;;;;;;;3.13;2.50;;;;;;;0.49;68.00;99461.91;5081300;27;20031;-76
2022/11/03 01:03:13;;;;;;;3.10;2.80;;;;;;;0.50;67.97;99464.47;5081554;27;20038;-75
2022/11/03 01:08:31;;;;;;;7.05;2.90;;;;;;;0.41;67.81;99477.91;5064513;27;20099;-72
2022/11/03 01:13:57;;;;;;;3.45;3.13;;;;;;;0.42;68.14;99484.00;5105186;27;20134;-71
2022/11/03 01:16:22;;;;;;;3.38;2.83;;;;;;;0.45;68.03;99478.69;5087164;27;20129;-75
2022/11/03 01:18:46;;;;;;;7.68;3.00;;;;;;;0.45;68.04;99478.69;5107160;27;20070;-71
2022/11/03 01:21:11;;;;;;;2.90;2.65;;;;;;;0.47;68.13;99479.44;5089386;27;20459;-69
2022/11/03 01:23:36;;;;;;;3.45;2.95;;;;;;;0.45;68.34;99484.78;5102332;27;20042;-68
2022/11/03 01:26:04;;;;;;;2.90;2.70;;;;;;;0.49;68.21;99485.50;5098094;27;20154;-75
2022/11/03 01:28:29;;;;;;;2.75;2.55;;;;;;;0.47;68.11;99489.94;5096714;27;20046;-68
2022/11/03 01:30:53;;;;;;;4.65;3.45;;;;;;;0.47;68.00;99489.94;5095502;27;20039;-67
2022/11/03 01:33:18;;;;;;;2.65;2.45;;;;;;;0.45;67.93;99491.78;5095249;27;20493;-68
2022/11/03 01:35:43;;;;;;;2.50;2.30;;;;;;;0.45;68.17;99505.75;5095567;27;20046;-69
2022/11/03 01:38:07;;;;;;;3.40;3.10;;;;;;;0.38;67.70;99493.72;5095415;27;20522;-67
2022/11/03 01:40:32;;;;;;;5.43;3.45;;;;;;;0.30;68.40;99496.63;5078448;27;20049;-67
2022/11/03 01:43:14;;;;;;;4.07;3.65;;;;;;;0.39;68.15;99503.31;5095429;27;20039;-67
2022/11/03 01:45:38;;;;;;;2.70;2.50;;;;;;;0.31;68.31;99490.47;5096764;27;20035;-68
2022/11/03 01:48:03;;;;;;;3.22;2.92;;;;;;;0.33;68.61;99493.03;5094979;27;20046;-66
2022/11/03 01:50:29;;;;;;;4.93;3.05;;;;;;;0.34;68.51;99487.72;5095768;27;20061;-68
2022/11/03 01:52:57;;;;;;;4.40;3.45;;;;;;;0.38;68.41;99500.75;5095975;27;20046;-70
2022/11/03 01:55:27;;;;;;;2.92;2.72;;;;;;;0.42;68.77;99487.50;5096287;27;20074;-67
2022/11/03 01:58:02;;;;;;;2.88;2.65;;;;;;;0.48;68.49;99495.16;5096048;27;20038;-71
2022/11/03 02:00:27;;;;;;;4.15;3.05;;;;;;;0.48;68.37;99483.78;5080566;27;20100;-72
2022/11/03 02:02:52;;;;;;;3.10;2.80;;;;;;;0.49;67.78;99485.50;5098027;27;20030;-71
2022/11/03 02:05:17;;;;;;;6.35;4.07;;;;;;;0.47;68.02;99484.69;5095832;27;20490;-71
2022/11/03 02:07:49;;;;;;;3.40;3.10;;;;;;;0.46;68.64;99489.09;5097967;27;20043;-69
2022/11/03 02:10:14;;;;;;;4.40;2.78;;;;;;;0.43;68.11;99483.97;5097168;27;20050;-69
2022/11/03 02:12:40;;;;;;;3.13;2.92;;;;;;;0.44;68.02;99487.44;5096890;27;20038;-70
2022/11/03 02:15:08;;;;;;;2.95;2.67;;;;;;;0.45;68.40;99492.66;5096147;27;20043;-70
2022/11/03 02:17:34;;;;;;;3.33;3.00;;;;;;;0.45;68.45;99484.78;5096346;27;20046;-70
2022/11/03 02:20:07;;;;;;;3.70;3.30;;;;;;;0.47;68.59;99482.94;5101558;27;20424;-68
2022/11/03 02:22:59;;;;;;;4.55;3.15;;;;;;;0.49;68.45;99483.75;5098000;27;20035;-69
2022/11/03 02:25:42;;;;;;;3.22;2.50;;;;;;;0.48;68.00;99478.56;5098059;27;20057;-69
2022/11/03 02:28:08;;;;;;;3.08;2.78;;;;;;;0.43;68.15;99476.09;5098136;27;20102;-68
2022/11/03 02:30:59;;;;;;;2.30;2.10;;;;;;;0.47;67.99;99476.84;5080680;27;20031;-65
2022/11/03 02:33:30;;;;;;;3.67;2.83;;;;;;;0.44;67.38;99476.97;5084814;27;20045;-72
2022/11/03 02:36:20;;;;;;;3.80;2.60;;;;;;;0.49;68.42;99475.03;5102354;27;20557;-74
2022/11/03 02:39:10;;;;;;;2.53;2.33;;;;;;;0.45;68.21;99473.44;5098192;27;20054;-73
2022/11/03 02:41:37;;;;;;;3.55;3.03;;;;;;;0.46;67.98;99477.72;5069544;27;20035;-72
2022/11/03 02:44:10;;;;;;;2.75;2.25;;;;;;;0.45;68.06;99476.06;5116203;27;20039;-76
2022/11/03 02:46:35;;;;;;;2.72;2.53;;;;;;;0.42;67.85;99490.13;5116642;27;20042;-71
2022/11/03 02:49:00;;;;;;;2.78;2.58;;;;;;;0.41;68.10;99483.16;5081820;27;20048;-76
2022/11/03 02:51:24;;;;;;;3.28;2.97;;;;;;;0.38;67.90;99485.00;5099560;27;20042;-77
2022/11/03 02:54:19;;;;;;;3.35;2.80;;;;;;;0.42;67.98;99484.88;5099728;27;20070;-74
2022/11/03 02:56:52;;;;;;;3.30;2.75;;;;;;;0.38;68.21;99483.25;5099741;27;20095;-73
2022/11/03 02:59:24;;;;;;;4.68;3.15;;;;;;;0.32;67.53;99481.69;5097961;27;20039;-72
2022/11/03 03:02:09;;;;;;;5.72;3.75;;;;;;;0.26;68.22;99487.13;5097879;27;20045;-73
2022/11/03 03:04:44;;;;;;;2.90;2.70;;;;;;;0.25;67.81;99487.16;5117163;27;20147;-78
2022/11/03 03:07:18;;;;;;;3.15;2.85;;;;;;;0.23;68.14;99491.59;5094696;27;20042;-72
2022/11/03 03:09:49;;;;;;;2.95;2.75;;;;;;;0.24;67.92;99482.81;5091791;27;20042;-72
2022/11/03 03:12:18;;;;;;;3.95;3.25;;;;;;;0.22;68.26;99484.66;5108671;27;20038;-73
2022/11/03 03:14:45;;;;;;;2.58;2.38;;;;;;;0.20;68.26;99489.94;5075987;27;20050;-74
2022/11/03 03:17:18;;;;;;;2.88;2.55;;;;;;;0.19;68.11;99488.25;5081937;27;20085;-71
2022/11/03 03:19:47;;;;;;;3.58;3.28;;;;;;;0.20;68.50;99489.09;5089754;27;20592;-71
2022/11/03 03:22:57;;;;;;;3.20;2.90;;;;;;;0.21;68.46;99491.66;5071209;27;20501;-71
2022/11/03 03:25:30;;;;;;;3.10;2.80;;;;;;;0.24;68.49;99486.31;5003183;28;20039;-71
2022/11/03 03:28:06;;;;;;;3.35;2.78;;;;;;;0.29;68.44;99487.03;5008000;28;20062;-72
2022/11/03 03:30:34;;;;;;;3.88;2.90;;;;;;;0.29;68.14;99484.41;5017730;28;20056;-72
2022/11/03 03:33:01;;;;;;;2.92;2.65;;;;;;;0.27;68.07;99480.97;5001885;28;20039;-73
2022/11/03 03:35:29;;;;;;;4.35;3.40;;;;;;;0.29;68.38;99491.41;5017839;28;20033;-73
2022/11/03 03:37:59;;;;;;;2.88;2.60;;;;;;;0.30;67.96;99483.50;5035577;28;20053;-72
2022/11/03 03:40:35;;;;;;;3.75;2.92;;;;;;;0.33;68.13;99480.78;5019618;28;20493;-74
2022/11/03 03:43:05;;;;;;;3.90;2.72;;;;;;;0.29;67.76;99467.81;4999461;28;20045;-71
2022/11/03 03:45:31;;;;;;;3.97;3.13;;;;;;;0.27;68.34;99478.34;5016484;28;20032;-74
2022/11/03 03:47:56;;;;;;;4.88;3.05;;;;;;;0.28;68.29;99481.84;5019182;28;20411;-72
2022/11/03 03:50:24;;;;;;;3.08;2.80;;;;;;;0.25;68.07;99482.78;5035855;28;20139;-69
2022/11/03 03:52:48;;;;;;;2.83;2.50;;;;;;;0.23;68.24;99489.84;5032657;28;20047;-70
2022/11/03 03:55:19;;;;;;;2.72;2.53;;;;;;;0.24;68.29;99490.69;5027697;27;20037;-72
2022/11/03 03:57:44;;;;;;;3.30;3.00;;;;;;;0.21;68.39;99491.66;5080268;27;20130;-72
2022/11/03 04:00:12;;;;;;;2.97;2.75;;;;;;;0.21;68.30;99493.44;5098995;27;20122;-72
2022/11/03 04:02:37;;;;;;;3.55;2.60;;;;;;;0.18;68.55;99483.03;5062991;27;20054;-73
2022/11/03 04:05:02;;;;;;;2.88;2.55;;;;;;;0.18;68.09;99494.38;5098565;27;20043;-72
2022/11/03 04:07:45;;;;;;;3.17;2.85;;;;;;;0.16;68.08;99500.56;5080223;27;20051;-71
2022/11/03 04:10:10;;;;;;;4.43;2.58;;;;;;;0.11;67.81;99500.75;5097308;27;20035;-72
2022/11/03 04:23:38;;;;;;;2.60;2.40;;;;;;;0.05;67.91;99502.69;4998416;28;20037;-69
2022/11/03 04:26:09;;;;;;;3.45;3.15;;;;;;;0.02;67.94;99508.84;5015441;28;20045;-68
2022/11/03 04:28:33;;;;;;;3.90;2.83;;;;;;;-0.05;67.95;99500.34;4998464;28;20053;-69
2022/11/03 04:30:58;;;;;;;5.93;3.65;;;;;;;-0.02;68.02;99505.50;5015290;28;20045;-68
2022/11/03 04:33:23;;;;;;;2.45;2.20;;;;;;;-0.01;68.10;99499.34;5017236;28;20045;-67
2022/11/03 04:35:48;;;;;;;2.88;2.45;;;;;;;0.00;68.22;99510.69;5016633;28;20500;-68
2022/11/03 04:38:13;;;;;;;5.00;2.50;;;;;;;-0.02;67.88;99502.88;5015150;28;20052;-68
2022/11/03 04:40:44;;;;;;;3.58;2.83;;;;;;;0.03;68.11;99510.56;5014721;28;20061;-68
2022/11/03 04:43:12;;;;;;;2.97;2.72;;;;;;;0.01;68.04;99512.38;5014847;28;20071;-67
2022/11/03 04:45:37;;;;;;;6.60;3.17;;;;;;;-0.04;68.10;99507.31;4997804;28;20526;-68
2022/11/03 04:48:10;;;;;;;10.85;3.30;;;;;;;-0.02;68.09;99509.88;4998266;28;20199;-72
2022/11/03 04:50:35;;;;;;;2.75;2.55;;;;;;;-0.09;68.11;99511.81;5015699;28;20040;-73
2022/11/03 04:53:11;;;;;;;2.17;1.98;;;;;;;-0.10;68.11;99519.72;4983229;28;20040;-72
2022/11/03 04:55:39;;;;;;;2.67;2.47;;;;;;;-0.11;68.11;99518.00;5091798;27;20055;-70
2022/11/03 04:58:16;;;;;;;3.38;3.03;;;;;;;-0.08;68.19;99518.78;5079553;27;20490;-70
2022/11/03 05:00:41;;;;;;;4.05;2.67;;;;;;;-0.10;68.31;99517.09;5096218;27;20039;-70
2022/11/03 05:03:13;;;;;;;6.78;3.30;;;;;;;-0.06;68.73;99519.59;5079155;27;20035;-70
2022/11/03 05:05:38;;;;;;;4.25;2.90;;;;;;;-0.03;68.55;99518.66;5079677;27;20034;-71
2022/11/03 05:08:07;;;;;;;6.38;3.03;;;;;;;0.01;68.52;99515.00;5097548;27;20126;-69
2022/11/03 05:10:32;;;;;;;5.20;2.80;;;;;;;0.06;68.61;99512.25;5062304;27;20058;-72
2022/11/03 05:12:59;;;;;;;3.63;3.20;;;;;;;0.12;68.01;99512.03;5096252;27;20494;-71
2022/11/03 05:15:33;;;;;;;3.00;2.67;;;;;;;0.13;67.86;99513.75;5095725;27;20042;-71
2022/11/03 05:17:59;;;;;;;4.03;3.13;;;;;;;0.14;67.98;99513.72;5078847;27;20095;-69
2022/11/03 05:20:36;;;;;;;4.78;4.40;;;;;;;0.22;67.87;99516.97;5058347;28;20051;-69
2022/11/03 05:23:01;;;;;;;3.92;2.75;;;;;;;0.19;67.56;99527.56;5075283;28;20482;-69
2022/11/03 05:25:41;;;;;;;3.92;2.65;;;;;;;0.24;67.80;99532.63;5075154;28;20468;-68
2022/11/03 05:28:15;;;;;;;3.78;3.17;;;;;;;0.25;68.23;99527.34;5058383;28;20111;-69
2022/11/03 05:30:39;;;;;;;4.07;3.20;;;;;;;0.23;67.86;99525.69;5076241;28;20043;-69
2022/11/03 05:33:17;;;;;;;7.28;3.65;;;;;;;0.24;67.78;99525.63;5075332;28;20049;-68
2022/11/03 05:35:42;;;;;;;4.90;3.10;;;;;;;0.18;67.69;99538.94;5076354;28;20577;-68
2022/11/03 05:38:13;;;;;;;4.50;3.13;;;;;;;0.21;67.70;99531.00;5057789;28;20526;-69
2022/11/03 05:40:38;;;;;;;4.28;3.33;;;;;;;0.16;67.60;99529.41;5074632;28;20062;-69
2022/11/03 05:43:02;;;;;;;4.10;3.20;;;;;;;0.14;67.54;99529.44;5076133;28;20040;-69
2022/11/03 05:45:35;;;;;;;3.40;3.10;;;;;;;0.16;67.58;99525.03;5074861;28;20141;-69
2022/11/03 05:48:02;;;;;;;5.28;2.97;;;;;;;0.16;67.84;99530.25;5075766;28;20421;-69
2022/11/03 05:50:29;;;;;;;3.50;3.13;;;;;;;0.19;67.57;99529.31;5091845;27;20044;-69
2022/11/03 05:53:12;;;;;;;4.43;3.42;;;;;;;0.20;67.80;99531.03;5077549;28;20036;-72
2022/11/03 05:55:37;;;;;;;4.45;3.50;;;;;;;0.17;67.50;99531.13;5078261;28;20051;-72
2022/11/03 05:58:21;;;;;;;8.85;3.42;;;;;;;0.25;67.42;99532.59;5075770;28;20043;-72
2022/11/03 06:00:45;;;;;;;3.60;3.30;;;;;;;0.24;67.30;99528.25;5095352;27;20043;-71
2022/11/03 06:03:22;;;;;;;4.68;3.40;;;;;;;0.26;67.26;99536.94;5080357;28;20058;-73
2022/11/03 06:05:47;;;;;;;4.15;3.50;;;;;;;0.27;67.14;99537.78;5060884;28;20191;-71
2022/11/03 06:08:18;;;;;;;7.88;3.60;;;;;;;0.31;67.41;99542.91;5078074;28;20047;-71
2022/11/03 06:10:48;;;;;;;3.85;3.42;;;;;;;0.34;67.24;99539.31;5059078;28;20044;-72
2022/11/03 06:13:17;;;;;;;6.45;3.78;;;;;;;0.34;67.27;99540.16;5074702;28;20043;-72
2022/11/03 06:15:45;;;;;;;7.70;3.15;;;;;;;0.35;67.06;99541.88;5074880;28;20074;-72
2022/11/03 06:18:21;;;;;;;3.97;3.25;;;;;;;0.40;67.36;99540.88;5075076;28;20027;-72
2022/11/03 06:21:01;;;;;;;4.20;3.38;;;;;;;0.45;67.15;99542.47;5077865;28;20135;-72
2022/11/03 06:23:26;;;;;;;5.43;3.55;;;;;;;0.38;67.15;99538.31;5079555;28;20039;-73
2022/11/03 06:25:56;;;;;;;3.80;3.10;;;;;;;0.40;67.27;99543.50;5060609;28;20046;-73
2022/11/03 06:28:25;;;;;;;4.78;3.42;;;;;;;0.42;67.46;99539.06;5077820;28;20047;-67
2022/11/03 06:30:50;;;;;;;4.38;3.08;;;;;;;0.35;66.86;99535.78;5093958;27;20100;-69
2022/11/03 06:33:23;;;;;;;4.80;3.20;;;;;;;0.29;66.91;99536.84;5077559;28;20031;-68
2022/11/03 06:35:52;;;;;;;4.53;3.28;;;;;;;0.26;67.02;99541.31;5083374;28;20050;-73
2022/11/03 06:38:21;;;;;;;4.47;3.40;;;;;;;0.24;67.38;99543.97;5087865;28;20040;-75
2022/11/03 06:40:49;;;;;;;4.15;3.17;;;;;;;0.23;67.26;99551.88;5065775;28;20039;-74
2022/11/03 06:43:31;;;;;;;6.00;3.47;;;;;;;0.24;67.38;99553.59;5083852;28;20039;-74
2022/11/03 06:46:01;;;;;;;9.07;4.05;;;;;;;0.24;67.74;99549.22;5087228;28;20048;-73
2022/11/03 06:48:32;;;;;;;4.47;3.90;;;;;;;0.30;67.37;99550.81;5086423;28;20042;-74
2022/11/03 06:50:58;;;;;;;6.72;4.20;;;;;;;0.33;67.58;99548.97;5087104;28;20053;-74
2022/11/03 06:53:30;;;;;;;6.28;4.22;;;;;;;0.43;67.43;99553.91;5085352;28;20039;-73
2022/11/03 06:55:55;;;;;;;12.18;5.10;;;;;;;0.45;67.29;99555.59;5088453;28;20044;-75
2022/11/03 06:58:34;;;;;;;12.10;6.30;;;;;;;0.56;66.96;99555.25;5088703;28;20030;-77
2022/11/03 07:01:03;;;;;;;8.90;5.45;;;;;;;0.59;67.04;99547.25;5082717;28;20055;-73
2022/11/03 07:03:36;;;;;;;11.43;5.50;;;;;;;0.65;67.00;99552.31;5079581;28;20055;-76
2022/11/03 07:06:14;;;;;;;9.60;4.57;;;;;;;0.70;66.59;99553.84;5082727;28;20399;-72
2022/11/03 07:08:42;;;;;;;9.20;4.93;;;;;;;0.66;66.95;99557.50;5081829;28;20363;-73
2022/11/03 07:11:26;;;;;;;6.53;4.40;;;;;;;0.73;66.61;99553.75;5080162;28;20044;-73
2022/11/03 07:13:55;;;;;;;5.55;4.05;;;;;;;0.70;66.44;99545.13;5064740;28;20044;-73
2022/11/03 07:16:52;;;;;;;8.55;4.63;;;;;;;0.70;66.80;99556.47;5084893;28;20126;-72
2022/11/03 07:19:27;;;;;;;10.57;4.72;;;;;;;0.81;66.65;99555.25;5022833;28;20053;-73
2022/11/03 07:21:59;;;;;;;10.35;5.75;;;;;;;0.83;66.08;99553.44;5004484;28;20076;-73
2022/11/03 07:24:29;;;;;;;8.80;4.70;;;;;;;0.84;66.35;99542.06;5017723;28;20056;-73
2022/11/03 07:27:19;;;;;;;9.73;5.28;;;;;;;0.87;66.21;99550.69;5017415;28;20459;-73
2022/11/03 07:29:45;;;;;;;9.82;4.35;;;;;;;0.80;65.83;99553.53;5016607;28;20053;-72
2022/11/03 07:32:18;;;;;;;9.38;4.03;;;;;;;0.85;66.42;99555.13;5006703;28;20033;-73
2022/11/03 07:34:42;;;;;;;8.90;4.05;;;;;;;0.82;66.04;99563.09;4980128;28;20075;-71
2022/11/03 07:37:14;;;;;;;8.85;3.92;;;;;;;0.87;66.08;99565.56;4996346;28;20148;-70
2022/11/03 07:39:38;;;;;;;7.68;4.00;;;;;;;0.90;65.82;99563.72;4997579;28;20111;-70
2022/11/03 07:42:21;;;;;;;8.55;4.10;;;;;;;0.98;66.09;99568.69;4999165;28;20049;-71
2022/11/03 07:44:46;;;;;;;6.15;3.97;;;;;;;0.92;65.97;99569.75;4998629;28;20404;-73
2022/11/03 07:47:17;;;;;;;5.65;3.45;;;;;;;0.98;65.75;99571.31;4981413;28;20091;-72
2022/11/03 07:49:42;;;;;;;4.75;3.15;;;;;;;1.00;65.31;99564.25;4997451;28;20250;-72
2022/11/03 07:52:13;;;;;;;8.75;3.67;;;;;;;1.07;65.38;99561.38;5000731;28;20113;-71
2022/11/03 07:54:38;;;;;;;5.90;3.35;;;;;;;1.07;65.25;99560.50;5009036;28;20069;-74
2022/11/03 07:57:02;;;;;;;10.10;3.92;;;;;;;1.09;65.13;99562.16;5062603;28;20071;-74
2022/11/03 07:59:32;;;;;;;14.07;4.53;;;;;;;1.08;64.97;99570.09;5077639;28;20082;-76
2022/11/03 08:01:57;;;;;;;11.45;4.32;;;;;;;1.03;64.69;99566.75;5060919;28;20092;-75
2022/11/03 08:04:23;;;;;;;4.20;3.17;;;;;;;1.03;65.22;99567.63;5078670;28;20135;-75
2022/11/03 08:06:48;;;;;;;5.93;3.53;;;;;;;1.06;65.17;99561.41;5060097;28;20035;-76
2022/11/03 08:09:13;;;;;;;7.47;3.30;;;;;;;1.09;65.15;99567.41;5078345;28;20051;-74
2022/11/03 08:11:38;;;;;;;4.10;3.33;;;;;;;1.10;65.17;99565.66;5062264;28;20054;-73
2022/11/03 08:14:02;;;;;;;6.35;3.58;;;;;;;1.13;65.07;99568.16;5083304;28;20040;-74
2022/11/03 08:16:27;;;;;;;5.43;3.50;;;;;;;1.14;64.99;99564.63;5080431;28;20524;-74
2022/11/03 08:18:52;;;;;;;5.20;3.38;;;;;;;1.17;65.06;99563.66;5081339;28;20565;-73
2022/11/03 08:21:16;;;;;;;6.03;3.58;;;;;;;1.18;64.99;99560.13;5077925;28;20051;-74
2022/11/03 08:23:41;;;;;;;4.75;3.08;;;;;;;1.19;65.01;99561.84;5080513;28;20050;-75
2022/11/03 08:26:06;;;;;;;4.85;3.00;;;;;;;1.24;64.69;99565.19;5078097;28;20092;-72
2022/11/03 08:28:32;;;;;;;4.95;3.92;;;;;;;1.25;64.49;99567.72;5061016;28;20100;-73
2022/11/03 08:31:03;;;;;;;7.00;3.22;;;;;;;1.23;64.38;99559.06;5079341;28;20051;-74
2022/11/03 08:33:28;;;;;;;5.60;3.78;;;;;;;1.21;64.22;99555.63;5077091;28;20047;-74
2022/11/03 08:35:53;;;;;;;5.53;3.38;;;;;;;1.16;64.46;99559.31;5077973;28;20035;-74
2022/11/03 08:38:17;;;;;;;5.88;3.55;;;;;;;1.15;64.55;99554.97;5076941;28;20126;-73
2022/11/03 08:40:42;;;;;;;6.18;4.03;;;;;;;1.15;64.07;99554.97;5077836;28;20050;-73
2022/11/03 08:43:06;;;;;;;5.28;4.22;;;;;;;1.15;64.16;99562.84;5076476;28;20416;-73
2022/11/03 08:45:31;;;;;;;6.22;3.80;;;;;;;1.17;64.11;99554.03;5078463;28;20146;-73
2022/11/03 08:47:56;;;;;;;5.38;3.67;;;;;;;1.21;64.32;99554.78;5080617;28;20047;-73
2022/11/03 08:50:21;;;;;;;7.30;4.05;;;;;;;1.24;64.12;99557.31;5078500;28;20039;-73
2022/11/03 08:52:46;;;;;;;5.30;3.33;;;;;;;1.21;64.03;99544.28;5076848;28;20101;-73
2022/11/03 08:55:10;;;;;;;4.70;3.85;;;;;;;1.21;64.21;99547.75;5078465;28;20043;-74
2022/11/03 08:57:35;;;;;;;5.47;3.65;;;;;;;1.21;63.74;99553.00;5078535;28;20092;-74
2022/11/03 09:00:00;;;;;;;4.05;2.90;;;;;;;1.22;63.77;99551.25;5076810;28;20035;-73
2022/11/03 09:02:24;;;;;;;5.57;3.78;;;;;;;1.23;63.90;99543.31;5076684;28;20088;-73
2022/11/03 09:04:49;;;;;;;6.45;3.58;;;;;;;1.26;63.92;99548.44;5077640;28;20123;-72
2022/11/03 09:07:14;;;;;;;11.13;4.63;;;;;;;1.27;63.66;99542.28;5077017;28;20039;-73
2022/11/03 09:09:39;;;;;;;4.75;3.40;;;;;;;1.25;63.88;99544.09;5077784;28;20045;-73
2022/11/03 09:12:04;;;;;;;4.28;3.42;;;;;;;1.25;63.71;99551.97;5076345;28;20039;-72
2022/11/03 09:14:28;;;;;;;4.78;3.40;;;;;;;1.23;63.80;99552.97;5076649;28;20446;-77
2022/11/03 09:16:53;;;;;;;4.30;3.45;;;;;;;1.20;63.69;99548.66;5060014;28;20126;-77
2022/11/03 09:19:17;;;;;;;10.10;3.53;;;;;;;1.22;63.71;99551.25;5077310;28;20051;-79
2022/11/03 09:21:42;;;;;;;5.85;3.13;;;;;;;1.24;63.67;99545.00;5076214;28;20063;-78
2022/11/03 09:24:07;;;;;;;3.10;2.78;;;;;;;1.28;63.05;99548.38;5077990;28;20494;-78
2022/11/03 09:26:31;;;;;;;2.95;2.75;;;;;;;1.30;63.48;99549.19;5077770;28;20134;-79
2022/11/03 09:28:56;;;;;;;5.20;3.83;;;;;;;1.28;63.09;99549.25;5076157;28;20042;-77
2022/11/03 09:31:21;;;;;;;4.78;3.90;;;;;;;1.29;63.18;99555.34;5076485;28;20116;-76
2022/11/03 09:33:46;;;;;;;5.22;3.45;;;;;;;1.24;63.22;99545.00;5077661;28;20122;-78
2022/11/03 09:36:11;;;;;;;6.70;3.47;;;;;;;1.22;63.53;99557.34;5060530;28;20134;-78
2022/11/03 09:38:35;;;;;;;4.47;3.72;;;;;;;1.21;63.93;99552.16;5077972;28;20134;-77
2022/11/03 09:41:01;;;;;;;11.63;4.85;;;;;;;1.24;63.84;99562.56;5077024;28;20035;-79
2022/11/03 09:43:26;;;;;;;7.35;4.68;;;;;;;1.24;63.51;99552.88;5077730;28;20085;-78
2022/11/03 09:45:52;;;;;;;6.38;4.25;;;;;;;1.24;63.89;99554.69;5076802;28;20047;-77
2022/11/03 09:48:17;;;;;;;6.28;3.15;;;;;;;1.25;63.72;99556.38;5077493;28;20032;-80
2022/11/03 09:50:42;;;;;;;7.22;3.08;;;;;;;1.30;63.76;99554.44;5077018;28;20107;-76
2022/11/03 09:53:11;;;;;;;7.15;3.90;;;;;;;1.30;63.58;99555.31;5075886;28;20076;-77
2022/11/03 09:55:35;;;;;;;6.43;3.25;;;;;;;1.28;63.68;99561.53;5076034;28;20093;-73
2022/11/03 09:58:08;;;;;;;7.25;4.05;;;;;;;1.25;63.35;99567.72;5075772;28;20067;-74
2022/11/03 10:00:33;;;;;;;5.38;2.88;;;;;;;1.25;63.42;99559.00;5058539;28;20046;-75
2022/11/03 10:02:57;;;;;;;6.75;3.03;;;;;;;1.22;63.44;99564.38;5076242;28;20118;-73
2022/11/03 10:05:24;;;;;;;3.92;2.67;;;;;;;1.16;63.71;99561.94;5075601;28;20111;-75
2022/11/03 10:07:51;;;;;;;5.53;2.85;;;;;;;1.09;63.81;99559.53;5076565;28;20087;-74
2022/11/03 10:10:19;;;;;;;7.30;3.40;;;;;;;1.11;63.92;99559.50;5079101;28;20051;-73
2022/11/03 10:12:45;;;;;;;24.73;3.95;;;;;;;1.11;63.96;99553.38;5082873;28;20071;-74
2022/11/03 10:15:15;;;;;;;5.50;3.03;;;;;;;1.08;63.79;99555.19;5058144;28;20493;-74
2022/11/03 10:17:40;;;;;;;3.45;2.70;;;;;;;1.04;63.85;99548.34;5033908;28;20044;-73
2022/11/03 10:20:09;;;;;;;9.40;3.38;;;;;;;1.04;64.26;99547.47;5023131;28;20156;-75
2022/11/03 10:22:33;;;;;;;5.38;3.40;;;;;;;1.07;64.15;99548.22;5037182;28;20074;-74
2022/11/03 10:25:25;;;;;;;9.23;4.20;;;;;;;1.18;64.59;99545.22;5036628;28;20032;-75
2022/11/03 10:27:50;;;;;;;4.40;3.08;;;;;;;1.17;64.12;99547.91;5053852;28;20044;-74
2022/11/03 10:30:15;;;;;;;5.32;3.20;;;;;;;1.19;63.95;99546.94;5033852;28;20047;-75
2022/11/03 10:32:40;;;;;;;3.42;2.90;;;;;;;1.21;64.23;99549.53;5016647;28;20055;-76
2022/11/03 10:35:33;;;;;;;4.28;3.42;;;;;;;1.28;63.92;99544.00;5033682;28;20047;-76
2022/11/03 10:38:23;;;;;;;5.25;3.33;;;;;;;1.36;64.42;99539.31;4999753;28;20052;-76
2022/11/03 10:40:47;;;;;;;8.20;3.90;;;;;;;1.35;64.21;99539.41;4999925;28;20044;-76
2022/11/03 10:43:12;;;;;;;10.50;4.80;;;;;;;1.32;63.76;99542.13;5016458;28;20067;-75
2022/11/03 10:45:36;;;;;;;10.40;4.93;;;;;;;1.30;63.90;99538.69;5033386;28;20043;-76
2022/11/03 10:48:07;;;;;;;7.38;4.22;;;;;;;1.31;63.83;99545.66;5027345;28;20062;-75
2022/11/03 10:50:32;;;;;;;6.55;4.35;;;;;;;1.30;63.58;99541.31;5076785;28;20035;-76
2022/11/03 10:52:57;;;;;;;5.65;3.05;;;;;;;1.30;63.76;99541.31;5058137;28;20097;-76
2022/11/03 10:55:24;;;;;;;5.30;3.28;;;;;;;1.26;63.79;99542.31;5058327;28;20070;-75
2022/11/03 10:57:49;;;;;;;10.65;3.30;;;;;;;1.19;63.70;99541.69;5042714;28;20039;-75
2022/11/03 11:00:15;;;;;;;4.30;3.50;;;;;;;1.14;64.18;99545.38;5042637;28;20050;-75
2022/11/03 11:02:42;;;;;;;6.95;3.15;;;;;;;1.11;64.14;99546.38;5078746;28;20054;-74
2022/11/03 11:05:33;;;;;;;6.28;3.03;;;;;;;1.21;64.20;99544.28;5041536;28;20032;-75
2022/11/03 11:07:58;;;;;;;13.85;5.70;;;;;;;1.15;64.39;99544.47;5055800;28;20109;-72
2022/11/03 11:10:25;;;;;;;5.20;3.88;;;;;;;1.16;64.14;99552.31;5057601;28;20050;-70
2022/11/03 11:13:20;;;;;;;3.95;3.05;;;;;;;1.24;64.35;99552.88;5076686;28;20414;-71
2022/11/03 11:15:46;;;;;;;3.30;2.80;;;;;;;1.20;63.61;99546.03;5044740;28;20040;-69
2022/11/03 11:18:27;;;;;;;4.60;3.53;;;;;;;1.23;63.83;99542.47;5068926;28;20036;-69
2022/11/03 11:20:52;;;;;;;4.60;3.72;;;;;;;1.15;63.71;99541.84;5063758;28;20075;-70
2022/11/03 11:23:26;;;;;;;3.58;3.17;;;;;;;1.21;64.20;99541.66;5061647;28;20079;-74
2022/11/03 11:26:09;;;;;;;6.40;3.78;;;;;;;1.24;64.32;99536.31;5081625;28;20048;-73
2022/11/03 11:28:42;;;;;;;5.65;3.55;;;;;;;1.18;64.05;99542.59;5045027;28;20115;-74
2022/11/03 11:31:25;;;;;;;4.68;3.42;;;;;;;1.21;64.40;99545.13;5079608;28;20043;-73
2022/11/03 11:34:17;;;;;;;6.63;3.70;;;;;;;1.14;64.11;99550.63;5090580;28;20035;-73
2022/11/03 11:36:44;;;;;;;13.93;3.60;;;;;;;1.10;64.09;99539.41;5082322;28;20031;-74
2022/11/03 11:39:10;;;;;;;9.15;4.05;;;;;;;1.05;64.41;99539.56;5099638;28;20050;-71
2022/11/03 11:42:10;;;;;;;8.07;3.90;;;;;;;1.11;64.59;99543.75;5071142;28;20588;-72
2022/11/03 11:44:38;;;;;;;5.13;3.95;;;;;;;1.06;64.39;99550.91;5074827;28;20054;-72
2022/11/03 11:47:37;;;;;;;4.63;2.80;;;;;;;1.05;64.22;99546.56;5044633;28;20516;-76
2022/11/03 11:50:05;;;;;;;3.58;2.88;;;;;;;0.96;64.34;99542.50;5068052;28;20581;-71
2022/11/03 11:52:41;;;;;;;5.93;3.28;;;;;;;0.93;64.87;99553.09;5096532;27;20064;-71
2022/11/03 11:55:14;;;;;;;7.80;2.85;;;;;;;0.93;64.47;99542.59;5081549;27;20046;-73
2022/11/03 11:57:39;;;;;;;5.03;2.65;;;;;;;0.94;64.73;99541.69;5100611;27;20069;-75
2022/11/03 12:00:04;;;;;;;3.28;2.70;;;;;;;0.95;64.68;99548.66;5082163;27;20039;-69
2022/11/03 12:02:37;;;;;;;7.45;2.75;;;;;;;0.99;64.89;99552.91;5101761;27;20522;-70
2022/11/03 12:05:02;;;;;;;4.13;2.95;;;;;;;1.01;64.85;99548.47;5082425;27;20921;-69
2022/11/03 12:07:35;;;;;;;5.38;3.08;;;;;;;1.09;64.94;99551.66;5081110;27;20039;-69
2022/11/03 12:10:15;;;;;;;4.65;2.97;;;;;;;1.14;64.51;99542.75;5099141;27;20045;-68